Time;durP1;ratioP1;P1;durP2;ratioP2;P2;SDS_P1;SDS_P2;PMS_P1;PMS_P2;Temp;Humidity;BMP_temperature;BMP_pressure;BME280_temperature;BME280_humidity;BME280_pressure;Samples;Min_cycle;Max_cycle;Signal;HPM_P1;HPM_P2
2022/06/07 00:00:25;;;;;;;3.50;3.20;;;16.30;80.50;;;18.82;60.22;101163.53;5150680;27;20205;-60
2022/06/07 00:02:52;;;;;;;3.70;3.40;;;16.30;80.50;;;18.88;60.27;101157.31;5149987;27;20669;-58
2022/06/07 00:05:19;;;;;;;3.77;3.47;;;16.30;80.30;;;18.91;60.04;101161.41;5139691;27;20214;-60
2022/06/07 00:07:45;;;;;;;4.50;3.73;;;16.30;80.40;;;18.88;60.39;101159.97;5107600;28;20193;-61
2022/06/07 00:10:12;;;;;;;3.60;3.33;;;16.30;80.50;;;18.91;60.13;101162.22;5062414;28;20197;-60
2022/06/07 00:12:40;;;;;;;3.03;2.83;;;16.30;80.30;;;18.94;59.86;101161.75;5092216;28;20187;-61
2022/06/07 00:15:09;;;;;;;4.03;3.73;;;16.40;80.20;;;18.97;60.10;101154.38;5084844;28;20637;-61
2022/06/07 00:17:36;;;;;;;4.60;4.30;;;16.40;80.80;;;18.92;60.27;101157.72;5062310;28;20318;-61
2022/06/07 00:22:42;;;;;;;4.93;4.37;;;16.40;80.80;;;18.98;60.25;101156.00;5171718;27;20633;-60
2022/06/07 00:25:35;;;;;;;3.93;3.63;;;16.40;80.60;;;18.94;60.24;101151.09;5117332;28;20339;-60
2022/06/07 00:28:03;;;;;;;4.17;3.87;;;16.40;80.60;;;18.93;60.34;101149.47;5109300;28;20513;-61
2022/06/07 00:30:31;;;;;;;4.00;3.70;;;16.40;80.40;;;18.97;60.35;101147.16;5108693;28;20210;-60
2022/06/07 00:32:59;;;;;;;4.43;4.10;;;16.40;80.40;;;18.99;60.13;101149.63;5082721;28;20232;-60
2022/06/07 00:35:26;;;;;;;4.23;3.90;;;16.40;80.30;;;18.99;59.83;101138.97;5098382;28;20306;-59
2022/06/07 00:37:54;;;;;;;3.70;3.50;;;16.40;80.20;;;18.99;59.85;101141.63;5084627;28;20189;-59
2022/06/07 00:40:21;;;;;;;4.43;4.13;;;16.40;80.20;;;19.01;59.92;101135.03;5082933;28;20197;-61
2022/06/07 00:42:48;;;;;;;4.67;4.37;;;16.40;80.20;;;18.93;59.82;101133.47;5078569;28;20287;-60
2022/06/07 00:47:52;;;;;;;4.50;4.20;;;16.40;81.00;;;18.90;59.82;101139.22;5171624;27;20630;-61
2022/06/07 00:50:30;;;;;;;4.63;4.33;;;16.40;80.30;;;18.90;60.06;101136.56;5150849;27;20194;-60
2022/06/07 00:52:59;;;;;;;5.03;4.63;;;16.40;80.20;;;18.85;60.09;101136.41;5130020;27;20265;-62
2022/06/07 00:55:26;;;;;;;4.57;4.27;;;16.40;80.20;;;18.79;60.38;101126.63;5139991;27;20219;-60
2022/06/07 00:57:53;;;;;;;4.90;4.50;;;16.30;80.20;;;18.80;60.52;101128.22;5107807;28;20201;-60
2022/06/07 01:00:23;;;;;;;4.40;3.97;;;16.30;80.40;;;18.81;60.21;101127.22;5086074;28;20204;-60
2022/06/07 01:02:51;;;;;;;5.07;4.67;;;16.30;80.50;;;18.80;60.27;101128.22;5041729;28;20197;-60
2022/06/07 01:05:19;;;;;;;4.77;4.47;;;16.30;80.50;;;18.79;60.35;101126.63;4988447;28;20210;-59
2022/06/07 01:13:08;;;;;;;4.20;3.90;;;16.30;80.60;;;18.86;60.41;101130.03;5171775;27;20625;-61
2022/06/07 01:15:35;;;;;;;4.07;3.77;;;16.30;80.70;;;18.91;60.25;101121.38;5138084;27;20234;-59
2022/06/07 01:18:02;;;;;;;6.10;4.37;;;16.30;80.70;;;18.98;59.95;101121.31;5145602;27;20618;-60
2022/06/07 01:20:30;;;;;;;5.00;4.70;;;16.30;81.70;;;19.01;60.19;101126.22;5149717;27;20202;-60
2022/06/07 01:22:58;;;;;;;6.90;5.07;;;16.30;80.80;;;18.93;60.21;101116.63;5135535;27;20196;-61
2022/06/07 01:25:25;;;;;;;6.07;4.80;;;16.30;80.70;;;18.84;60.20;101112.63;5123284;27;20206;-61
2022/06/07 01:27:52;;;;;;;4.30;4.00;;;16.30;80.50;;;18.85;60.31;101112.41;5058842;28;20195;-58
2022/06/07 01:30:19;;;;;;;4.10;3.70;;;16.30;80.40;;;18.86;60.38;101092.69;5062075;28;20193;-61
2022/06/07 01:32:45;;;;;;;4.50;4.10;;;16.30;80.60;;;18.86;60.38;101090.03;5056210;28;23378;-60
2022/06/07 01:37:50;;;;;;;4.63;4.23;;;16.30;80.70;;;18.86;60.09;101090.03;5171783;27;20637;-58
2022/06/07 01:43:02;;;;;;;4.93;4.43;;;16.30;80.20;;;18.70;60.41;101095.94;5107919;28;20275;-59
2022/06/07 01:45:29;;;;;;;3.93;3.63;;;16.30;80.30;;;18.65;60.18;101098.44;5059757;28;20776;-61
2022/06/07 01:47:55;;;;;;;4.80;4.40;;;16.20;80.20;;;18.65;60.24;101095.75;5062430;28;20192;-59
2022/06/07 01:50:23;;;;;;;4.20;3.90;;;16.20;80.20;;;18.65;60.16;101086.94;5099976;28;20204;-59
2022/06/07 01:52:50;;;;;;;5.10;3.70;;;16.20;80.10;;;18.60;60.14;101090.28;5019663;28;20298;-60
2022/06/07 01:56:33;;;;;;;5.00;3.83;;;16.20;80.00;;;18.39;60.49;101082.63;4912424;29;20584;-60
2022/06/07 02:01:38;;;;;;;3.43;3.23;;;16.20;79.80;;;18.48;60.03;101080.53;5171410;27;20653;-61
2022/06/07 02:04:06;;;;;;;3.43;3.13;;;16.10;79.40;;;18.44;59.81;101069.47;5150518;27;20191;-59
2022/06/07 02:06:32;;;;;;;3.87;3.50;;;16.10;79.00;;;18.43;59.89;101067.81;5133143;27;20214;-61
2022/06/07 02:08:59;;;;;;;3.87;3.57;;;16.10;79.00;;;18.37;59.90;101068.69;5148465;27;20190;-60
2022/06/07 02:11:27;;;;;;;4.13;3.37;;;16.00;78.80;;;18.36;59.44;101066.22;5125560;27;20208;-64
2022/06/07 02:13:55;;;;;;;3.87;3.57;;;16.00;78.40;;;18.37;59.44;101062.53;5113494;28;20274;-57
2022/06/07 02:16:23;;;;;;;3.40;3.10;;;15.90;78.40;;;18.34;59.52;101061.13;5046070;28;20217;-58
2022/06/07 02:18:51;;;;;;;3.33;3.13;;;15.90;78.50;;;18.28;59.57;101059.31;5014793;28;20204;-60
2022/06/07 02:21:17;;;;;;;3.93;3.63;;;15.90;78.60;;;18.22;59.63;101066.34;5020405;28;20222;-61
2022/06/07 02:26:26;;;;;;;3.27;3.03;;;15.90;78.60;;;18.27;59.45;101063.84;5152726;27;20642;-60
2022/06/07 02:28:58;;;;;;;4.40;3.60;;;15.80;78.60;;;18.21;59.64;101059.38;5111257;28;20198;-60
2022/06/07 02:31:28;;;;;;;3.53;3.23;;;15.80;78.70;;;18.15;59.81;101070.09;5106810;28;20590;-61
2022/06/07 02:33:59;;;;;;;3.73;3.10;;;15.80;78.70;;;18.18;59.61;101064.34;5116904;28;20206;-60
2022/06/07 02:36:28;;;;;;;3.70;3.30;;;15.80;78.50;;;18.21;59.55;101064.69;5104228;28;20216;-58
2022/06/07 02:38:56;;;;;;;3.33;3.13;;;15.80;78.80;;;18.22;59.43;101061.00;5086240;28;20210;-61
2022/06/07 02:41:26;;;;;;;3.30;3.10;;;15.80;78.70;;;18.22;59.30;101054.88;5113694;28;20737;-60
2022/06/07 02:45:11;;;;;;;3.93;3.13;;;15.80;78.50;;;18.24;59.41;101052.78;5018951;28;20256;-60
2022/06/07 02:47:37;;;;;;;2.90;2.70;;;15.80;78.60;;;18.16;59.75;101055.75;4659851;30;20733;-60
2022/06/07 02:52:41;;;;;;;3.27;2.97;;;15.80;78.40;;;18.16;59.45;101053.88;5171919;27;20934;-59
2022/06/07 02:55:09;;;;;;;3.83;3.27;;;15.80;78.40;;;18.20;59.25;101062.25;5126172;27;20520;-59
2022/06/07 02:57:36;;;;;;;3.60;3.30;;;15.70;78.40;;;18.18;59.29;101049.13;5111438;28;20191;-58
2022/06/07 03:00:10;;;;;;;3.43;3.13;;;15.80;78.50;;;18.17;59.18;101052.03;5134447;27;20201;-60
2022/06/07 03:02:37;;;;;;;3.10;2.90;;;15.70;78.40;;;18.21;59.28;101056.72;5120056;27;20285;-60
2022/06/07 03:05:05;;;;;;;3.40;3.10;;;15.80;78.60;;;18.10;59.38;101051.25;5102778;28;20276;-61
2022/06/07 03:07:32;;;;;;;3.17;2.97;;;15.70;78.50;;;18.13;59.40;101056.16;5119555;28;20187;-61
2022/06/07 03:10:30;;;;;;;3.40;3.10;;;15.70;78.30;;;18.11;59.52;101047.56;5124624;28;20219;-58
2022/06/07 03:13:12;;;;;;;3.40;3.10;;;15.80;78.70;;;18.08;59.69;101051.50;4858569;28;20203;-58
2022/06/07 03:18:16;;;;;;;3.53;3.23;;;15.70;78.70;;;18.08;59.82;101038.16;5172816;27;20633;-59
2022/06/07 03:20:46;;;;;;;3.17;2.97;;;15.70;79.10;;;18.10;59.87;101040.59;5155728;27;20555;-58
2022/06/07 03:23:13;;;;;;;4.07;3.10;;;15.70;79.10;;;18.13;59.98;101034.84;5150214;27;20198;-59
2022/06/07 03:25:40;;;;;;;3.63;3.33;;;15.70;79.20;;;18.16;60.05;101037.09;5145998;27;20299;-59
2022/06/07 03:28:07;;;;;;;3.83;3.53;;;15.70;79.30;;;18.16;59.91;101042.41;5135212;27;20233;-58
2022/06/07 03:30:34;;;;;;;4.30;4.00;;;15.70;79.20;;;18.14;59.96;101031.13;5123677;27;20190;-61
2022/06/07 03:33:02;;;;;;;4.80;4.27;;;15.70;79.30;;;18.16;60.23;101026.44;5107392;28;20193;-61
2022/06/07 03:38:42;;;;;;;8.23;4.50;;;15.70;79.50;;;18.09;60.46;101029.13;5171560;27;20653;-61
2022/06/07 03:41:17;;;;;;;4.60;4.20;;;15.70;79.90;;;18.15;59.76;101030.13;5131237;27;20601;-60
2022/06/07 03:43:44;;;;;;;5.40;4.90;;;15.70;79.70;;;18.18;60.29;101032.34;5130113;27;20555;-60
2022/06/07 03:46:18;;;;;;;5.17;4.67;;;15.70;79.80;;;18.20;60.21;101024.97;5120339;28;20255;-60
2022/06/07 03:48:46;;;;;;;4.80;4.40;;;15.80;79.90;;;18.26;60.15;101030.22;5062126;28;20195;-60
2022/06/07 03:51:17;;;;;;;4.13;3.83;;;15.80;79.80;;;18.27;60.13;101021.22;5074275;28;20208;-61
2022/06/07 03:53:45;;;;;;;4.83;4.47;;;15.80;79.80;;;18.35;60.01;101022.75;5009010;28;20208;-60
2022/06/07 03:56:18;;;;;;;5.00;4.60;;;15.80;79.80;;;18.41;59.86;101027.22;4908802;29;20232;-61
2022/06/07 03:58:59;;;;;;;5.67;4.73;;;15.90;79.90;;;18.34;60.16;101028.31;4805938;29;20212;-65
2022/06/07 04:04:07;;;;;;;4.80;4.40;;;15.90;80.60;;;18.31;60.21;101021.56;5171232;27;20541;-58
2022/06/07 04:06:39;;;;;;;4.90;4.50;;;15.90;79.90;;;18.34;60.24;101015.81;5108134;28;20220;-62
2022/06/07 04:09:09;;;;;;;5.20;4.67;;;15.90;79.80;;;18.39;60.01;101021.31;5095440;28;20196;-61
2022/06/07 04:11:36;;;;;;;5.43;4.93;;;15.90;79.80;;;18.40;60.08;101014.94;5108541;28;20188;-61
2022/06/07 04:14:09;;;;;;;5.77;5.33;;;15.90;79.90;;;18.40;60.09;101014.94;5062993;28;20213;-61
2022/06/07 04:16:36;;;;;;;5.67;5.17;;;16.00;80.10;;;18.36;60.47;101018.25;5070426;28;20299;-64
2022/06/07 04:19:04;;;;;;;6.40;5.80;;;15.90;80.10;;;18.39;60.27;101013.31;5036103;28;20198;-59
2022/06/07 04:21:31;;;;;;;5.87;5.30;;;15.90;80.00;;;18.40;60.29;101014.94;5073815;28;20207;-61
2022/06/07 04:23:57;;;;;;;6.27;5.77;;;15.90;80.10;;;18.33;60.56;101014.16;5069482;28;20220;-58
2022/06/07 04:29:01;;;;;;;6.50;6.00;;;15.90;80.30;;;18.25;61.14;101017.13;5171223;27;20713;-61
2022/06/07 04:31:28;;;;;;;6.73;6.23;;;15.90;80.90;;;18.19;61.41;101010.81;5150085;27;20191;-59
2022/06/07 04:33:57;;;;;;;8.53;7.30;;;15.90;81.00;;;18.23;61.30;101013.88;5150355;27;20222;-60
2022/06/07 04:36:27;;;;;;;9.10;6.87;;;15.90;80.90;;;18.27;61.41;101009.72;5148881;27;20214;-59
2022/06/07 04:38:57;;;;;;;8.37;7.67;;;15.90;81.00;;;18.28;61.42;101006.00;5130040;27;20202;-61
2022/06/07 04:41:25;;;;;;;7.47;6.77;;;15.90;81.10;;;18.37;61.11;101006.56;5130893;27;20260;-61
2022/06/07 04:43:53;;;;;;;8.37;7.57;;;16.00;81.10;;;18.44;61.00;101002.81;5145198;27;20584;-58
2022/06/07 04:47:37;;;;;;;9.03;8.23;;;16.00;81.10;;;18.38;61.27;101006.34;5131263;27;20222;-61
2022/06/07 04:50:02;;;;;;;10.70;8.00;;;16.00;80.90;;;18.44;61.20;100994.00;4920418;29;20202;-60
2022/06/07 04:52:42;;;;;;;9.37;8.37;;;16.10;81.00;;;18.47;61.15;101002.38;5213555;27;20635;-61
2022/06/07 04:55:09;;;;;;;10.17;8.70;;;16.10;81.10;;;18.51;61.10;100994.78;5183554;27;20213;-58
2022/06/07 04:57:36;;;;;;;10.27;8.17;;;16.10;81.20;;;18.59;60.87;101008.63;5169271;27;20209;-58
2022/06/07 05:00:08;;;;;;;9.87;8.90;;;16.20;81.10;;;18.63;60.88;101001.84;5186986;27;20272;-61
2022/06/07 05:02:38;;;;;;;12.20;11.07;;;16.20;81.20;;;18.56;61.20;101000.28;5185080;27;20705;-60
2022/06/07 05:05:06;;;;;;;13.47;10.80;;;16.10;81.40;;;18.51;61.65;101000.94;5167835;27;20317;-58
2022/06/07 05:07:33;;;;;;;12.33;11.03;;;16.10;81.60;;;18.55;61.60;100996.78;5144601;27;20201;-60
2022/06/07 05:11:30;;;;;;;13.97;12.60;;;16.20;81.90;;;18.42;62.22;101002.22;5144615;27;20257;-63
2022/06/07 05:16:39;;;;;;;15.83;14.03;;;16.20;82.00;;;18.53;62.21;101003.38;5130242;27;20656;-59
2022/06/07 05:19:10;;;;;;;13.03;11.73;;;16.20;81.90;;;18.60;61.77;101002.28;5091083;28;20663;-60
2022/06/07 05:21:38;;;;;;;13.83;12.17;;;16.20;82.10;;;18.70;61.63;100999.09;5083063;28;20515;-60
2022/06/07 05:24:06;;;;;;;13.67;12.27;;;16.30;82.10;;;18.69;61.35;100995.63;5024709;28;20597;-58
2022/06/07 05:26:40;;;;;;;15.93;13.00;;;16.30;82.00;;;18.63;61.40;100991.19;4990241;28;20224;-60
2022/06/07 05:29:17;;;;;;;15.57;13.97;;;16.30;81.80;;;18.67;61.68;100994.19;4980045;28;20249;-60
2022/06/07 05:31:45;;;;;;;16.13;14.53;;;16.30;81.80;;;18.86;61.26;100991.31;4907136;28;20213;-60
2022/06/07 05:34:12;;;;;;;16.27;12.87;;;16.40;81.70;;;18.99;60.79;100997.56;4841299;29;20197;-62
2022/06/07 05:36:58;;;;;;;17.33;14.60;;;16.40;81.50;;;18.94;60.94;101001.69;4775699;29;20220;-61
2022/06/07 05:42:03;;;;;;;17.40;15.60;;;16.40;81.30;;;18.94;60.65;100993.69;5171495;27;20633;-61
2022/06/07 05:44:30;;;;;;;19.90;15.60;;;16.50;81.00;;;18.84;60.83;100988.06;5126276;28;20230;-60
2022/06/07 05:46:59;;;;;;;18.87;15.30;;;16.50;81.00;;;18.82;61.04;100995.50;5128943;27;20244;-60
2022/06/07 05:49:26;;;;;;;17.80;15.30;;;16.50;80.90;;;18.80;61.03;100984.19;5117456;28;20252;-61
2022/06/07 05:51:53;;;;;;;18.87;16.07;;;16.50;80.90;;;18.87;60.96;100990.28;5074313;28;20198;-58
2022/06/07 05:54:23;;;;;;;17.00;15.20;;;16.50;81.00;;;19.06;60.45;100982.28;5048059;28;20213;-61
2022/06/07 05:56:50;;;;;;;17.87;16.00;;;16.60;80.90;;;19.17;60.35;100984.19;5088194;28;20240;-61
2022/06/07 05:59:18;;;;;;;16.97;15.27;;;16.60;80.70;;;19.28;60.14;100984.22;4976915;28;20205;-59
2022/06/07 06:01:45;;;;;;;17.27;15.13;;;16.70;80.60;;;19.25;60.07;100973.22;4882221;29;20254;-61
2022/06/07 06:06:49;;;;;;;18.00;16.10;;;16.70;80.30;;;19.39;59.28;100977.34;5215674;27;20607;-58
2022/06/07 06:12:02;;;;;;;21.20;16.20;;;16.90;79.70;;;19.41;59.02;100984.09;5151707;27;20214;-60
2022/06/07 06:14:29;;;;;;;20.47;15.70;;;16.90;79.30;;;19.37;59.22;100979.44;5118562;27;20648;-61
2022/06/07 06:16:56;;;;;;;17.77;15.83;;;16.90;79.10;;;19.43;59.20;100981.19;5096564;28;20190;-60
2022/06/07 06:19:22;;;;;;;19.17;15.50;;;17.00;79.20;;;19.47;59.04;100983.19;5113994;28;20195;-66
2022/06/07 06:21:50;;;;;;;18.60;14.80;;;17.00;79.00;;;19.50;58.72;100981.91;5093516;28;20215;-60
2022/06/07 06:24:23;;;;;;;15.87;14.27;;;17.00;78.80;;;19.49;58.81;100978.44;5026583;28;20207;-58
2022/06/07 06:26:51;;;;;;;17.20;14.40;;;17.00;78.70;;;19.51;58.98;100978.22;4969321;28;20231;-59
2022/06/07 06:31:55;;;;;;;18.47;16.07;;;17.00;78.60;;;19.40;58.70;100979.78;5192401;27;20620;-60
2022/06/07 06:34:31;;;;;;;17.97;15.50;;;17.00;78.50;;;19.34;59.33;100985.19;5146941;27;20224;-59
2022/06/07 06:36:58;;;;;;;18.67;16.20;;;17.00;78.60;;;19.36;59.34;100977.81;5151594;27;20652;-58
2022/06/07 06:39:26;;;;;;;17.40;15.47;;;17.00;78.50;;;19.26;58.71;100972.97;5141060;27;20190;-59
2022/06/07 06:41:53;;;;;;;16.00;14.30;;;17.00;78.00;;;19.31;59.15;100966.97;5146910;27;20592;-58
2022/06/07 06:44:20;;;;;;;16.03;14.07;;;17.00;78.20;;;19.46;58.68;100967.41;5135226;27;20741;-59
2022/06/07 06:46:48;;;;;;;14.70;13.20;;;17.10;78.20;;;19.59;58.63;100968.03;5144340;27;20202;-60
2022/06/07 06:49:33;;;;;;;15.10;13.63;;;17.10;77.90;;;19.61;58.08;100970.47;5005204;28;20219;-60
2022/06/07 06:54:42;;;;;;;12.17;11.03;;;17.20;77.40;;;19.72;57.51;100972.38;5167363;27;20647;-59
2022/06/07 06:57:08;;;;;;;12.40;10.80;;;17.20;77.30;;;19.86;57.11;100973.78;5127840;28;20207;-61
2022/06/07 06:59:36;;;;;;;12.03;10.93;;;17.30;77.10;;;19.95;56.60;100977.75;5129613;28;20188;-61
2022/06/07 07:02:12;;;;;;;12.30;11.00;;;17.40;76.70;;;20.12;56.23;100978.72;5085655;28;20622;-60
2022/06/07 07:04:39;;;;;;;11.43;10.20;;;17.50;76.40;;;20.25;56.24;100972.38;5063498;28;20219;-60
2022/06/07 07:07:06;;;;;;;12.43;11.17;;;17.60;76.20;;;20.42;55.42;100980.50;5076309;28;20234;-60
2022/06/07 07:09:33;;;;;;;13.53;11.10;;;17.60;75.80;;;20.54;55.04;100981.31;5086891;28;20245;-61
2022/06/07 07:12:03;;;;;;;12.93;11.67;;;17.70;75.40;;;20.60;55.06;100969.66;5067717;28;20200;-63
2022/06/07 07:14:29;;;;;;;13.63;12.43;;;17.80;74.90;;;20.44;54.58;100978.41;5089299;28;20676;-61
2022/06/07 07:19:35;;;;;;;11.87;10.60;;;17.80;74.10;;;20.31;55.74;100966.06;5172067;27;20629;-61
2022/06/07 07:22:05;;;;;;;12.40;11.20;;;17.90;74.30;;;20.45;55.04;100977.34;5129265;27;20593;-58
2022/06/07 07:24:34;;;;;;;12.63;10.63;;;17.90;74.10;;;20.56;55.11;100979.22;5103751;28;20224;-56
2022/06/07 07:27:02;;;;;;;13.73;11.07;;;18.00;74.20;;;20.49;54.59;100978.53;5104967;28;20274;-59
2022/06/07 07:29:28;;;;;;;11.90;10.37;;;18.00;73.80;;;20.59;54.46;100970.69;5106771;28;20196;-61
2022/06/07 07:31:55;;;;;;;14.23;10.57;;;18.00;73.90;;;20.71;54.03;100971.50;5111277;28;20529;-61
2022/06/07 07:34:26;;;;;;;12.40;11.20;;;18.00;73.90;;;20.71;54.01;100969.66;5124561;28;20196;-61
2022/06/07 07:40:15;;;;;;;12.07;10.87;;;18.10;73.60;;;20.46;54.81;100979.81;5155586;27;20623;-59
2022/06/07 07:42:42;;;;;;;11.80;10.60;;;18.10;73.40;;;20.58;54.61;100983.28;5130153;28;20639;-60
2022/06/07 07:45:12;;;;;;;12.27;11.07;;;18.10;73.70;;;20.62;54.46;100979.09;5111748;28;20306;-60
2022/06/07 07:47:39;;;;;;;11.30;10.30;;;18.00;73.30;;;20.71;54.49;100983.03;5101801;28;20298;-60
2022/06/07 07:50:07;;;;;;;12.57;11.27;;;18.10;73.40;;;20.48;54.82;100976.88;5085212;28;20252;-59
2022/06/07 07:52:35;;;;;;;11.50;10.40;;;17.90;73.20;;;20.41;55.28;100976.19;5032588;28;20644;-62
2022/06/07 07:55:02;;;;;;;12.90;11.60;;;18.00;73.50;;;20.43;55.22;100979.44;4670852;28;20237;-60
2022/06/07 07:57:28;;;;;;;12.87;11.57;;;18.00;73.90;;;20.47;54.78;100975.25;4337469;32;20225;-62
2022/06/07 08:02:33;;;;;;;12.10;11.00;;;18.00;73.40;;;20.57;54.45;100980.81;5141895;27;20620;-61
2022/06/07 08:05:00;;;;;;;11.77;10.67;;;18.10;73.00;;;20.61;54.15;100982.00;5113562;28;20551;-61
2022/06/07 08:07:27;;;;;;;11.97;10.77;;;18.10;73.00;;;20.61;54.26;100982.00;5102571;28;20227;-61
2022/06/07 08:09:54;;;;;;;11.27;10.17;;;18.10;73.30;;;20.71;54.42;100976.84;5105668;28;20196;-62
2022/06/07 08:12:21;;;;;;;10.63;9.53;;;18.20;73.40;;;20.87;54.42;100986.84;5051547;28;20203;-59
2022/06/07 08:14:47;;;;;;;12.30;11.20;;;18.20;73.30;;;20.95;53.93;100975.75;5029623;28;20222;-60
2022/06/07 08:17:14;;;;;;;11.57;10.17;;;18.30;73.70;;;20.89;54.04;100985.53;4994975;28;20545;-61
2022/06/07 08:22:27;;;;;;;11.33;10.33;;;18.30;72.60;;;21.07;52.88;100981.94;5156557;27;20542;-61
2022/06/07 08:24:53;;;;;;;12.33;10.90;;;18.40;71.90;;;21.05;52.83;100981.34;5126155;27;20344;-60
2022/06/07 08:27:20;;;;;;;12.07;10.87;;;18.40;71.60;;;21.05;53.04;100988.56;5091149;28;20205;-60
2022/06/07 08:29:47;;;;;;;11.33;10.03;;;18.50;71.60;;;21.21;52.93;100988.63;5096878;28;21290;-61
2022/06/07 08:32:14;;;;;;;12.23;10.70;;;18.50;71.70;;;21.40;52.83;101003.47;5055799;28;20212;-61
2022/06/07 08:37:33;;;;;;;11.47;10.20;;;18.70;70.70;;;21.81;50.98;100994.31;4907907;28;20210;-61
2022/06/07 08:39:59;;;;;;;10.87;9.87;;;18.80;70.30;;;21.91;50.11;100993.69;4784039;29;20678;-61
2022/06/07 08:45:12;;;;;;;11.27;10.17;;;18.90;69.60;;;22.28;49.66;100989.47;5147639;27;20656;-61
2022/06/07 08:47:46;;;;;;;11.10;10.07;;;19.20;68.70;;;22.43;48.96;100992.38;5088839;28;20210;-61
2022/06/07 08:50:18;;;;;;;12.23;11.03;;;19.30;68.10;;;22.51;48.47;100991.16;5103263;28;20285;-60
2022/06/07 08:52:49;;;;;;;11.93;10.83;;;19.40;67.20;;;22.67;48.44;100988.47;5117421;28;20655;-61
2022/06/07 08:55:21;;;;;;;10.87;9.87;;;19.50;67.40;;;22.77;48.14;100993.16;5070326;28;20311;-62
2022/06/07 08:57:56;;;;;;;11.07;10.07;;;19.60;66.90;;;22.71;47.26;100986.91;4973508;28;20201;-62
2022/06/07 09:00:28;;;;;;;11.27;10.17;;;19.60;65.50;;;22.92;47.01;100996.03;4873548;29;20615;-60
2022/06/07 09:06:03;;;;;;;11.20;10.20;;;19.80;63.00;;;23.69;43.30;100985.91;5187574;27;20637;-61
2022/06/07 09:08:40;;;;;;;9.97;8.80;;;20.00;61.80;;;23.61;43.34;100974.81;5129166;27;20344;-60
2022/06/07 09:14:05;;;;;;;10.37;9.40;;;20.40;59.90;;;23.48;43.25;100979.53;5108662;28;20221;-61
2022/06/07 09:16:39;;;;;;;9.17;8.27;;;20.40;59.10;;;23.45;43.30;100988.09;5091478;28;20308;-61
2022/06/07 09:19:14;;;;;;;10.00;8.90;;;20.40;58.50;;;23.40;42.91;100989.91;5097960;28;20553;-62
2022/06/07 09:21:44;;;;;;;9.70;8.80;;;20.40;58.40;;;23.32;43.15;100991.16;4943179;28;20229;-56
2022/06/07 09:24:28;;;;;;;9.80;8.97;;;20.40;58.50;;;23.16;43.30;100996.59;4651181;30;20606;-61
2022/06/07 09:29:39;;;;;;;10.53;9.53;;;20.30;58.70;;;22.82;43.94;100993.25;5134339;27;20616;-61
2022/06/07 09:32:11;;;;;;;10.57;9.57;;;20.20;58.80;;;22.68;43.87;101000.00;5102840;28;20548;-61
2022/06/07 09:34:51;;;;;;;9.93;9.07;;;20.00;58.80;;;22.39;44.63;101007.38;5084171;28;20581;-61
2022/06/07 09:37:31;;;;;;;10.13;9.13;;;19.90;59.00;;;22.19;44.84;101002.50;4971318;28;20236;-61
2022/06/07 09:40:24;;;;;;;9.47;8.57;;;19.80;59.20;;;22.16;45.07;100996.78;4929157;28;20204;-60
2022/06/07 09:43:17;;;;;;;10.73;9.70;;;19.70;59.60;;;22.15;45.06;101006.72;4678835;30;20219;-61
2022/06/07 09:46:32;;;;;;;11.30;10.03;;;19.60;59.70;;;22.00;45.51;101002.97;4574179;30;20238;-61
2022/06/07 09:52:57;;;;;;;11.43;10.33;;;19.50;60.10;;;21.82;46.43;101011.22;5157623;27;20567;-60
2022/06/07 09:55:36;;;;;;;12.43;11.23;;;19.40;61.60;;;21.79;46.67;101004.47;5084595;28;20225;-57
2022/06/07 09:58:34;;;;;;;11.40;10.27;;;19.30;61.60;;;21.44;46.90;101014.53;5125878;27;20194;-61
2022/06/07 10:01:39;;;;;;;10.53;9.43;;;19.20;61.60;;;21.49;46.80;101012.75;5032439;28;20292;-61
2022/06/07 10:04:21;;;;;;;13.70;10.87;;;19.20;61.20;;;21.49;46.00;101023.47;4950253;28;20215;-61
2022/06/07 10:06:58;;;;;;;10.27;9.17;;;19.10;60.70;;;21.53;45.98;101013.91;4790260;29;20275;-59
2022/06/07 10:09:30;;;;;;;9.83;8.93;;;19.10;60.70;;;21.67;45.94;101027.00;4714354;30;20719;-59
2022/06/07 10:11:56;;;;;;;9.63;8.63;;;19.10;60.80;;;21.80;46.01;101024.84;4560830;31;20688;-60
2022/06/07 10:16:48;;;;;;;8.77;7.97;;;19.10;60.80;;;21.97;44.85;101016.84;5149890;27;20662;-60
2022/06/07 10:19:43;;;;;;;8.47;7.67;;;19.20;59.60;;;22.01;43.73;101021.47;5098318;27;20206;-59
2022/06/07 10:22:38;;;;;;;9.03;8.13;;;19.20;58.80;;;22.00;43.94;101011.84;5108409;28;20589;-60
2022/06/07 10:25:14;;;;;;;8.20;7.40;;;19.20;58.70;;;22.03;44.13;101013.22;5028848;28;20305;-59
2022/06/07 10:27:55;;;;;;;6.40;5.80;;;19.20;58.60;;;22.03;43.92;101015.91;4933629;28;20306;-59
2022/06/07 10:30:36;;;;;;;7.67;6.97;;;19.30;58.90;;;22.03;43.86;101015.91;4786617;29;20301;-62
2022/06/07 10:33:28;;;;;;;7.17;6.40;;;19.30;58.70;;;22.06;44.01;101023.47;4633545;30;20763;-61
2022/06/07 10:35:54;;;;;;;8.63;7.80;;;19.30;59.00;;;22.18;44.28;101010.75;4542313;31;20251;-59
2022/06/07 10:41:08;;;;;;;9.97;6.60;;;19.30;59.00;;;22.26;44.00;101013.03;5157357;27;20400;-61
2022/06/07 10:43:52;;;;;;;7.83;6.43;;;19.40;59.40;;;22.43;43.72;101013.03;5129542;27;20225;-61
2022/06/07 10:46:21;;;;;;;7.10;6.40;;;19.50;59.80;;;22.57;44.08;101019.69;5101480;28;20277;-62
2022/06/07 10:49:10;;;;;;;7.50;6.67;;;19.50;59.10;;;22.60;43.63;101017.34;5065540;28;20283;-61
2022/06/07 10:54:58;;;;;;;8.03;6.73;;;19.70;58.60;;;22.62;43.22;101025.97;4882830;29;20330;-61
2022/06/07 11:00:26;;;;;;;7.67;5.80;;;19.70;58.00;;;22.62;43.00;101023.28;5170625;27;20606;-59
2022/06/07 11:03:14;;;;;;;7.00;6.30;;;19.70;57.90;;;22.67;43.07;101020.69;5105426;28;20200;-59
2022/06/07 11:12:00;;;;;;;8.77;7.97;;;19.70;57.70;;;22.50;43.46;101025.22;4877178;29;20571;-61
2022/06/07 11:15:00;;;;;;;8.20;7.10;;;19.70;58.20;;;22.31;43.84;101031.91;4821314;29;20303;-59
2022/06/07 11:20:25;;;;;;;10.37;8.20;;;19.70;59.00;;;22.82;43.88;101023.56;5184682;27;20641;-64
2022/06/07 11:23:02;;;;;;;9.47;8.60;;;19.90;59.40;;;23.28;43.50;101024.16;5129214;27;20217;-60
2022/06/07 11:25:35;;;;;;;8.50;7.70;;;20.00;59.10;;;23.41;42.03;101013.06;5126100;27;20222;-61
2022/06/07 11:28:12;;;;;;;8.57;7.60;;;20.20;57.90;;;23.46;41.23;101016.59;5145745;27;20608;-63
2022/06/07 11:30:52;;;;;;;12.00;7.30;;;20.40;56.50;;;23.29;40.85;101025.78;5125533;27;20309;-67
2022/06/07 11:33:39;;;;;;;5.87;5.20;;;20.40;55.10;;;23.22;40.05;101025.97;4989832;28;20723;-61
2022/06/07 11:36:28;;;;;;;6.53;5.63;;;20.50;54.50;;;23.15;39.46;101022.66;4759750;29;20325;-60
2022/06/07 11:39:21;;;;;;;6.53;5.90;;;20.50;53.00;;;23.02;39.68;101016.84;4561587;30;20455;-63
2022/06/07 11:44:00;;;;;;;6.13;5.53;;;20.30;53.00;;;22.99;40.11;101020.03;5119121;27;20544;-60
2022/06/07 11:46:40;;;;;;;5.70;5.20;;;20.30;53.50;;;23.02;40.35;101022.22;5096140;28;20655;-61
2022/06/07 11:49:41;;;;;;;5.90;5.27;;;20.30;54.00;;;22.98;40.35;101029.97;5085512;28;20294;-62
2022/06/07 11:52:24;;;;;;;6.73;6.13;;;20.20;54.10;;;22.97;40.55;101030.19;5077312;27;20690;-62
2022/06/07 11:54:56;;;;;;;6.80;6.20;;;20.20;54.30;;;22.99;40.61;101033.47;4952145;28;20320;-64
2022/06/07 11:58:00;;;;;;;7.20;6.47;;;20.20;54.70;;;22.92;40.84;101031.75;4761830;29;20219;-64
2022/06/07 12:00:47;;;;;;;6.63;5.97;;;20.20;55.00;;;22.88;41.12;101025.28;4655416;30;20568;-65
2022/06/07 12:03:31;;;;;;;7.63;5.93;;;20.10;55.10;;;22.90;41.36;101030.38;4389669;31;20258;-62
2022/06/07 12:08:53;;;;;;;6.30;5.70;;;20.10;55.40;;;22.82;41.23;101034.31;5120087;27;20543;-62
2022/06/07 12:11:25;;;;;;;6.17;5.67;;;20.10;55.30;;;22.86;41.64;101034.63;5083295;28;20206;-62
2022/06/07 12:14:06;;;;;;;7.13;5.83;;;20.10;55.40;;;22.94;41.56;101023.44;5065591;28;20212;-59
2022/06/07 12:16:39;;;;;;;6.40;5.80;;;20.20;55.50;;;23.05;40.85;101027.09;5011121;28;20613;-62